METAR AND TAF INFORMATION
METAR FOR ENDU
ADDS - METARS form results

(1133 UTC 25 May 2019)
Data provider http://aviationweather.gov/metar/data/
 
METAR text: ENDU 251120Z 01007KT 330V050 9999 VCSH FEW015 BKN030 06/M01 Q1007 NOSIG RMK WIND 1100FT VRB02KT WIND 2200FT 36008KT
Conditions at: ENDU (BARDUFOSS (CIV/M, NO) observed 1120 UTC 25 May 2019
Temperature: 6.0°C (43°F)
Dewpoint: -1.0°C (30°F) [RH = 61%]
Pressure (altimeter): 29.73 inches Hg (1007.0 mb)
Winds: from the N (10 degrees) at 8 MPH (7 knots; 3.6 m/s)
Visibility: 6 or more miles (10+ km)
Ceiling: 3000 feet AGL
Clouds: few clouds at 1500 feet AGL
broken clouds at 3000 feet AGL
Weather: VCSH  (showers in vicinity)

METAR text: ENDU 251050Z 35006KT 310V040 9999 VCSH FEW015 SCT020 BKN030 06/M01 Q1008 NOSIG RMK WIND 1100FT VRB02KT WIND 2200FT 36008KT
Conditions at: ENDU (BARDUFOSS (CIV/M, NO) observed 1050 UTC 25 May 2019
Temperature: 6.0°C (43°F)
Dewpoint: -1.0°C (30°F) [RH = 61%]
Pressure (altimeter): 29.76 inches Hg (1008.0 mb)
Winds: from the N (350 degrees) at 7 MPH (6 knots; 3.1 m/s)
Visibility: 6 or more miles (10+ km)
Ceiling: 3000 feet AGL
Clouds: few clouds at 1500 feet AGL
scattered clouds at 2000 feet AGL
broken clouds at 3000 feet AGL
Weather: VCSH  (showers in vicinity)

Forecast for: ENDU (BARDUFOSS (CIV/M, NO)
Text: TAF ENDU 2506/2606 34008KT 9999 FEW015 BKN030
Forecast period: 0600 UTC 25 May 2019 to 0600 UTC 26 May 2019
Forecast type: FROM: standard forecast or significant change
Winds: from the NNW (340 degrees) at 9 MPH (8 knots; 4.1 m/s)
Visibility: 6 or more miles 10+ km)
Ceiling: 3000 feet AGL
Clouds: few clouds at 1500 feet AGL
broken clouds at 3000 feet AGL
Weather: no significant weather forecast for this period

 AIRPORT MAP

 RUNWAY INFORMATION
Runway 10 Runway length 8015 ft Runway width 148 ft
Runway elevation 252 ft Runway displaced threshold 1880 ft Runway heading 109
Runway 28 Runway length 8015 ft Runway width 148 ft
Runway elevation 219 ft Runway displaced threshold 0 ft Runway heading 289

 AIRPORT FREQUENCIES
Type APP Name APP Frequency 118.8 MHZ
Type ATIS Name ATIS Frequency 129.725 MHZ
Type TWR Name TWR Frequency 118.1 MHZ

 AIRPORT NEAR NAVIGATION AIDS
Type TACAN Name Bardufoss Frequency 113400 KHZ
Type VOR-DME Name Bardufoss Frequency 114200 KHZ
Type NDB Name Sorreisa Frequency 338 KHZ
Type NDB Name Senja Frequency 414 KHZ
Type NDB Name Fossmo Frequency 371 KHZ
Type NDB Name Tiller Frequency 350 KHZ